Marathon, Florida
Current Conditions -  °F | °C
As of 8:53 PM on Sunday 23 Nov 2014 (Local Time) from KMTH Reporting Station
Clear Clear  
Wind Chill: 79°   Ceiling: Unl
Heat Index: 83°   Visibility: 9mi
Dew Point: 77°   Wind: 7mph
Humidity: 94%   Direction: 140°SE
Pressure: 29.95"   Gusts: NA
Location:  24.73°N, 81.04°W
Report Text: KMTH 240153Z AUTO 14006KT 9SM CLR 26/25 A2995 RMK AO2 SLP141 T02610250
Loading
Personal Weather Stations






























Interactive Weather Map New forecast layout! Learn more

10-Day Weather Forecast

Advertisements
Track Severe Weather on mobile